Time;durP1;ratioP1;P1;durP2;ratioP2;P2;SDS_P1;SDS_P2;PMS_P1;PMS_P2;Temp;Humidity;BMP_temperature;BMP_pressure;BME280_temperature;BME280_humidity;BME280_pressure;Samples;Min_cycle;Max_cycle;Signal;HPM_P1;HPM_P2
2023/07/15 00:04:48;;;;;;;3.55;2.70;;;;;;;23.02;42.86;99278.59;10306668;28;20230;-66
2023/07/15 00:09:50;;;;;;;6.55;2.80;;;;;;;23.83;42.07;99224.59;10307156;28;20234;-66
2023/07/15 00:14:52;;;;;;;6.93;2.78;;;;;;;23.40;42.54;99205.28;10317728;28;20244;-68
2023/07/15 00:19:54;;;;;;;3.25;2.50;;;;;;;23.55;42.00;99224.25;10314400;28;20244;-68
2023/07/15 00:24:55;;;;;;;3.97;2.67;;;;;;;23.71;42.03;99207.78;10318926;28;20313;-68
2023/07/15 00:29:57;;;;;;;4.40;2.80;;;;;;;23.52;42.80;99203.00;10315283;28;20328;-68
2023/07/15 00:34:59;;;;;;;6.40;2.63;;;;;;;24.15;42.34;99188.50;10313084;28;20278;-68
2023/07/15 00:40:03;;;;;;;2.88;2.33;;;;;;;24.85;40.63;99227.34;10317329;28;20616;-68
2023/07/15 00:45:06;;;;;;;2.85;2.45;;;;;;;24.77;40.76;99244.44;10317483;28;20409;-68
2023/07/15 00:50:07;;;;;;;2.67;2.28;;;;;;;25.10;40.37;99218.81;10318728;28;20234;-66
2023/07/15 00:55:10;;;;;;;3.10;2.50;;;;;;;25.39;39.74;99208.81;10302898;28;20725;-68
2023/07/15 01:00:12;;;;;;;3.25;2.30;;;;;;;25.56;39.47;99202.81;10316570;28;20312;-68
2023/07/15 01:05:13;;;;;;;3.85;2.53;;;;;;;25.43;39.96;99213.41;10317375;28;20277;-68
2023/07/15 01:10:15;;;;;;;2.67;2.47;;;;;;;24.70;40.98;99253.00;10324443;23;20645;-36
2023/07/15 01:15:17;;;;;;;4.00;2.78;;;;;;;24.35;40.67;99264.00;10321827;28;20584;-37
2023/07/15 01:20:22;;;;;;;2.50;2.30;;;;;;;23.91;41.67;99234.91;10303912;28;20234;-36
2023/07/15 01:25:24;;;;;;;3.83;2.67;;;;;;;24.43;41.58;99198.84;10288044;28;20210;-35
2023/07/15 01:30:25;;;;;;;3.25;2.58;;;;;;;24.49;41.12;99228.56;10285704;28;20234;-37
2023/07/15 01:35:27;;;;;;;4.13;2.53;;;;;;;24.80;40.41;99202.78;10289930;28;21276;-37
2023/07/15 01:40:29;;;;;;;3.45;2.80;;;;;;;24.30;40.62;99231.25;10286658;28;20813;-37
2023/07/15 01:45:31;;;;;;;3.95;2.75;;;;;;;24.64;40.70;99202.16;10292833;28;20282;-37
2023/07/15 01:50:34;;;;;;;3.95;2.30;;;;;;;24.34;41.28;99217.81;10289433;28;20686;-37
2023/07/15 01:55:36;;;;;;;4.50;2.60;;;;;;;24.92;40.46;99170.34;10288755;28;20259;-37
2023/07/15 02:00:37;;;;;;;2.72;2.50;;;;;;;24.50;41.12;99191.13;10294742;28;20253;-37
2023/07/15 02:05:39;;;;;;;3.50;2.53;;;;;;;23.29;42.10;99231.00;10291060;28;20234;-37
2023/07/15 02:10:41;;;;;;;5.50;2.53;;;;;;;23.24;41.87;99210.00;10283840;28;20909;-36
2023/07/15 02:15:43;;;;;;;3.53;2.70;;;;;;;22.54;42.69;99219.09;10291965;28;20703;-37
2023/07/15 02:20:46;;;;;;;3.58;3.15;;;;;;;22.64;42.98;99183.59;10290638;28;20296;-37
2023/07/15 02:25:48;;;;;;;5.63;2.80;;;;;;;24.21;41.16;99137.34;10283419;28;20233;-37
2023/07/15 02:30:49;;;;;;;4.70;3.05;;;;;;;23.56;42.46;99165.81;10284610;28;20245;-37
2023/07/15 02:35:51;;;;;;;3.67;3.15;;;;;;;23.50;41.56;99201.63;10282930;28;20240;-37
2023/07/15 02:40:54;;;;;;;4.70;3.45;;;;;;;24.32;41.54;99138.84;10281506;28;20300;-37
2023/07/15 02:45:56;;;;;;;3.10;2.67;;;;;;;24.26;40.72;99211.09;10275909;28;20413;-37
2023/07/15 02:50:58;;;;;;;4.50;2.70;;;;;;;23.19;42.20;99188.22;10286211;28;20234;-37
2023/07/15 02:56:00;;;;;;;6.30;2.80;;;;;;;23.43;42.21;99177.38;10287358;28;20709;-37
2023/07/15 03:01:02;;;;;;;3.28;2.60;;;;;;;22.54;42.88;99194.56;10286727;28;20720;-37
2023/07/15 03:06:04;;;;;;;3.63;2.22;;;;;;;22.51;43.19;99165.94;10288123;28;20238;-37
2023/07/15 03:11:07;;;;;;;3.17;2.67;;;;;;;22.54;43.37;99134.56;10282510;28;20246;-37
2023/07/15 03:16:09;;;;;;;3.25;2.40;;;;;;;22.66;43.28;99128.78;10289280;28;20222;-37
2023/07/15 03:21:11;;;;;;;5.38;3.17;;;;;;;22.56;43.38;99131.56;10289128;28;20231;-37
2023/07/15 03:26:13;;;;;;;3.88;2.80;;;;;;;21.90;44.34;99145.09;10282693;28;20237;-37
2023/07/15 03:31:15;;;;;;;4.30;2.95;;;;;;;22.94;42.96;99090.97;10275701;28;20691;-37
2023/07/15 03:36:17;;;;;;;4.25;2.60;;;;;;;24.46;40.91;99103.41;10277904;28;20285;-37
2023/07/15 03:41:19;;;;;;;2.80;2.60;;;;;;;24.82;39.92;99121.25;10278674;28;20257;-36
2023/07/15 03:46:23;;;;;;;2.83;2.60;;;;;;;24.66;40.13;99143.34;10289255;28;20234;-37
2023/07/15 03:51:25;;;;;;;4.57;2.80;;;;;;;24.24;40.92;99158.63;10293006;28;20297;-37
2023/07/15 03:56:27;;;;;;;3.60;2.83;;;;;;;22.11;44.34;99180.47;10288992;28;20374;-37
2023/07/15 04:01:29;;;;;;;3.97;2.90;;;;;;;20.65;46.98;99161.56;10287608;28;20234;-37
2023/07/15 04:06:34;;;;;;;3.20;2.90;;;;;;;21.19;46.25;99125.00;10279488;28;20720;-36
2023/07/15 04:11:36;;;;;;;3.65;2.88;;;;;;;20.54;47.41;99157.16;10286317;28;20245;-36
2023/07/15 04:16:38;;;;;;;3.42;3.00;;;;;;;22.03;45.04;99070.19;10286916;28;20242;-36
2023/07/15 04:21:41;;;;;;;3.20;2.75;;;;;;;21.47;45.90;99089.34;10282933;28;20237;-36
2023/07/15 04:26:43;;;;;;;4.38;3.13;;;;;;;21.67;45.20;99146.50;10285537;28;20245;-37
2023/07/15 04:31:45;;;;;;;4.18;3.45;;;;;;;22.31;44.15;99152.34;10293306;28;20334;-36
2023/07/15 04:36:46;;;;;;;4.03;3.33;;;;;;;22.38;44.69;99098.34;10288049;28;20222;-36
2023/07/15 04:41:48;;;;;;;5.85;3.25;;;;;;;22.37;43.58;99172.22;10291643;28;20288;-36
2023/07/15 04:46:50;;;;;;;3.85;3.15;;;;;;;23.31;43.05;99075.97;10290000;28;21003;-36
2023/07/15 04:51:52;;;;;;;4.55;3.30;;;;;;;24.41;40.81;99129.97;10305239;28;20861;-36
2023/07/15 04:56:54;;;;;;;4.00;3.20;;;;;;;24.74;41.37;99142.69;10281161;28;20242;-37
2023/07/15 05:01:56;;;;;;;5.85;3.35;;;;;;;23.38;43.49;99186.44;10287332;28;20242;-36
2023/07/15 05:06:58;;;;;;;4.00;3.08;;;;;;;23.94;42.92;99114.13;10291923;28;20226;-36
2023/07/15 05:12:00;;;;;;;4.22;3.30;;;;;;;23.26;44.00;99140.41;10286721;28;20238;-36
2023/07/15 05:17:05;;;;;;;4.82;3.33;;;;;;;23.05;44.24;99123.34;10280102;28;20231;-36
2023/07/15 05:22:07;;;;;;;7.05;3.65;;;;;;;22.52;45.61;99145.75;10278809;28;20242;-36
2023/07/15 05:27:09;;;;;;;3.83;3.10;;;;;;;22.41;46.95;99132.44;10283125;28;20238;-36
2023/07/15 05:32:11;;;;;;;5.22;3.35;;;;;;;23.14;45.26;99098.22;10277703;28;20886;-36
2023/07/15 05:37:13;;;;;;;4.72;3.28;;;;;;;22.14;47.28;99123.53;10285768;28;20371;-36
2023/07/15 05:42:15;;;;;;;3.75;3.17;;;;;;;22.65;47.28;99078.88;10288402;28;20250;-36
2023/07/15 05:47:16;;;;;;;5.55;3.47;;;;;;;22.57;47.94;99114.09;10279568;28;20312;-36
2023/07/15 05:52:21;;;;;;;4.70;3.47;;;;;;;23.29;46.99;99078.16;10284894;28;20279;-37
2023/07/15 05:57:23;;;;;;;6.70;3.33;;;;;;;23.89;45.75;99070.47;10277506;28;20700;-36
2023/07/15 06:02:26;;;;;;;3.25;2.95;;;;;;;24.99;43.14;99058.59;10278515;28;20935;-36
2023/07/15 06:07:27;;;;;;;5.68;3.00;;;;;;;24.18;43.96;99103.19;10305137;28;20238;-37
2023/07/15 06:12:29;;;;;;;4.32;3.10;;;;;;;25.13;42.45;99080.53;10285973;28;20254;-36
2023/07/15 06:17:31;;;;;;;5.22;3.00;;;;;;;25.06;42.73;99069.16;10285090;28;20235;-36
2023/07/15 06:22:33;;;;;;;4.00;2.92;;;;;;;24.73;42.82;99115.63;10277383;28;20242;-37
2023/07/15 06:27:35;;;;;;;3.08;2.67;;;;;;;25.52;41.32;99089.47;10272129;28;20238;-37
2023/07/15 06:32:37;;;;;;;2.80;2.55;;;;;;;24.58;42.27;99168.59;10273977;28;20234;-37
2023/07/15 06:37:39;;;;;;;3.72;2.70;;;;;;;24.86;42.39;99076.56;10274075;28;20238;-37
2023/07/15 06:42:42;;;;;;;3.30;2.50;;;;;;;25.66;41.03;99140.44;10278202;28;20743;-37
2023/07/15 06:47:44;;;;;;;4.05;2.72;;;;;;;26.06;41.21;99126.28;10275921;28;20234;-37
2023/07/15 06:52:46;;;;;;;3.60;2.70;;;;;;;26.82;39.47;99111.28;10275140;28;20712;-37
2023/07/15 06:57:48;;;;;;;4.40;2.60;;;;;;;26.37;40.40;99125.69;10267997;28;20226;-37
2023/07/15 07:02:50;;;;;;;4.55;2.65;;;;;;;26.64;39.78;99143.22;10269220;28;20242;-37
2023/07/15 07:07:53;;;;;;;3.63;2.53;;;;;;;26.30;41.32;99070.44;10273576;28;20233;-37
2023/07/15 07:12:55;;;;;;;3.67;2.53;;;;;;;27.00;40.29;99049.09;10280489;28;20242;-37
2023/07/15 07:17:56;;;;;;;2.67;2.30;;;;;;;26.06;40.92;99117.25;10270617;28;20230;-37
2023/07/15 07:22:58;;;;;;;4.45;2.90;;;;;;;25.92;40.72;99161.91;10293870;28;20253;-37
2023/07/15 07:28:00;;;;;;;2.97;2.60;;;;;;;26.49;40.48;99092.25;10301530;28;20233;-36
2023/07/15 07:33:02;;;;;;;4.85;2.75;;;;;;;24.90;43.07;99112.38;10286006;28;20674;-36
2023/07/15 07:38:04;;;;;;;6.60;2.60;;;;;;;26.40;40.22;99133.28;10288047;28;20230;-36
2023/07/15 07:43:06;;;;;;;10.77;3.40;;;;;;;27.74;39.30;99098.00;10296193;28;20237;-36
2023/07/15 07:48:11;;;;;;;12.15;3.42;;;;;;;26.06;41.31;99134.50;10297709;28;20234;-36
2023/07/15 07:53:13;;;;;;;7.50;3.03;;;;;;;26.07;40.95;99176.44;10297961;28;20295;-36
2023/07/15 07:58:15;;;;;;;5.60;3.28;;;;;;;26.17;41.11;99127.69;10287162;28;20254;-36
2023/07/15 08:03:18;;;;;;;4.05;2.63;;;;;;;27.06;39.18;99157.63;10296256;28;20211;-36
2023/07/15 08:08:20;;;;;;;2.95;2.65;;;;;;;28.50;38.21;99131.91;10287121;28;20650;-36
2023/07/15 08:13:22;;;;;;;3.13;2.60;;;;;;;28.27;38.26;99136.72;10296032;28;20242;-36
2023/07/15 08:18:23;;;;;;;4.57;2.35;;;;;;;28.88;37.11;99172.59;10291225;28;20303;-36
2023/07/15 08:23:25;;;;;;;5.55;2.55;;;;;;;26.38;40.33;99198.59;10294404;28;20269;-36
2023/07/15 08:28:27;;;;;;;3.13;2.53;;;;;;;27.88;38.46;99191.34;10288690;28;20230;-36
2023/07/15 08:33:29;;;;;;;2.88;2.58;;;;;;;29.23;36.87;99145.88;10301193;28;20211;-36
2023/07/15 08:38:31;;;;;;;4.88;2.42;;;;;;;28.56;37.96;99183.72;10288860;28;20219;-36
2023/07/15 08:43:33;;;;;;;2.70;2.15;;;;;;;28.84;37.26;99157.88;10289688;28;20238;-36
2023/07/15 08:48:36;;;;;;;3.75;2.95;;;;;;;29.06;36.81;99130.16;10294638;28;20243;-36
2023/07/15 08:53:38;;;;;;;6.25;2.60;;;;;;;28.76;37.04;99157.56;10289932;28;20245;-36
2023/07/15 08:58:42;;;;;;;4.85;2.50;;;;;;;29.63;36.15;99155.91;10284184;28;20249;-36
2023/07/15 09:03:43;;;;;;;4.10;2.88;;;;;;;28.69;38.27;99204.00;10283152;28;20245;-36
2023/07/15 09:08:52;;;;;;;6.70;2.47;;;;;;;26.75;40.88;99211.31;10297375;28;20230;-36
2023/07/15 09:13:54;;;;;;;3.08;2.38;;;;;;;26.20;41.00;99203.06;10283362;28;20708;-36
2023/07/15 09:18:56;;;;;;;3.97;2.63;;;;;;;26.44;39.83;99188.34;10288005;28;20238;-36
2023/07/15 09:24:00;;;;;;;4.65;2.58;;;;;;;26.47;39.70;99172.09;10287170;28;20294;-36
2023/07/15 09:29:03;;;;;;;2.25;2.00;;;;;;;26.58;39.42;99202.84;10288853;28;20234;-36
2023/07/15 09:34:05;;;;;;;6.03;2.20;;;;;;;27.11;38.18;99228.94;10284926;28;20852;-36
2023/07/15 09:39:17;;;;;;;4.50;2.22;;;;;;;26.58;38.40;99249.50;10299152;28;20241;-36
2023/07/15 09:44:33;;;;;;;2.08;1.88;;;;;;;26.88;38.65;99217.88;10295423;28;20222;-36
2023/07/15 09:49:35;;;;;;;5.93;2.67;;;;;;;27.93;37.93;99215.97;10286420;28;20237;-36
2023/07/15 09:54:41;;;;;;;2.90;2.22;;;;;;;29.18;36.89;99164.53;10284268;28;20231;-36
2023/07/15 09:59:47;;;;;;;3.88;2.60;;;;;;;27.39;37.98;99234.34;10277955;28;20234;-36
2023/07/15 10:04:57;;;;;;;4.00;2.35;;;;;;;28.86;37.26;99177.63;10287340;28;20230;-36
2023/07/15 10:09:59;;;;;;;3.55;2.40;;;;;;;28.79;37.15;99200.94;10288636;28;20235;-36
2023/07/15 10:15:02;;;;;;;9.18;2.65;;;;;;;28.37;36.73;99219.72;10279270;28;20282;-36
2023/07/15 10:20:12;;;;;;;2.97;2.35;;;;;;;29.12;37.04;99181.22;10276758;28;20243;-36
2023/07/15 10:25:18;;;;;;;3.72;2.42;;;;;;;28.86;36.59;99189.44;10286647;28;20313;-36
2023/07/15 10:30:28;;;;;;;3.45;2.75;;;;;;;28.72;37.06;99170.31;10278967;28;20223;-36
2023/07/15 10:35:44;;;;;;;3.42;2.17;;;;;;;28.60;37.35;99190.19;10283948;28;20660;-36
2023/07/15 10:40:46;;;;;;;3.75;2.60;;;;;;;29.11;37.38;99181.53;10277678;28;20238;-36
2023/07/15 10:45:52;;;;;;;2.53;2.25;;;;;;;29.87;36.49;99145.09;10288956;28;20708;-36
2023/07/15 10:50:57;;;;;;;4.53;2.40;;;;;;;29.01;37.27;99198.38;10293431;28;20285;-36
2023/07/15 10:56:05;;;;;;;3.55;2.70;;;;;;;29.60;36.16;99149.09;10282106;28;20222;-36
2023/07/15 11:06:25;;;;;;;2.80;2.38;;;;;;;27.42;40.05;99096.38;10441875;27;20812;-68
2023/07/15 11:11:27;;;;;;;2.92;2.47;;;;;;;27.00;40.50;99139.69;10432953;28;20232;-71
2023/07/15 11:16:29;;;;;;;4.78;2.50;;;;;;;26.69;40.86;99115.69;10439638;28;20225;-70
2023/07/15 11:21:30;;;;;;;5.38;2.20;;;;;;;26.46;40.73;99154.00;10438765;28;20224;-69
2023/07/15 11:26:34;;;;;;;3.55;2.45;;;;;;;27.10;40.01;99136.69;10439048;28;20868;-67
2023/07/15 11:31:40;;;;;;;5.00;2.95;;;;;;;26.90;39.51;99133.28;10439485;28;20236;-68
2023/07/15 11:36:42;;;;;;;4.75;2.35;;;;;;;26.69;39.72;99141.16;10422085;28;20236;-67
2023/07/15 11:41:44;;;;;;;3.08;2.45;;;;;;;27.61;39.25;99072.22;10431609;28;20255;-70
2023/07/15 11:46:47;;;;;;;4.40;2.42;;;;;;;27.30;39.51;99105.19;10434593;28;20314;-66
2023/07/15 11:51:49;;;;;;;3.53;2.55;;;;;;;27.95;38.81;99089.19;10439242;28;20657;-67
2023/07/15 11:56:53;;;;;;;5.63;2.80;;;;;;;29.18;38.43;99068.13;10432338;28;20768;-69
2023/07/15 12:02:02;;;;;;;3.85;2.40;;;;;;;29.00;38.18;99073.66;10420685;28;20245;-67
2023/07/15 12:07:04;;;;;;;3.72;2.78;;;;;;;28.74;38.19;99112.19;10445984;28;20285;-68
2023/07/15 12:12:07;;;;;;;3.58;2.67;;;;;;;28.51;38.75;99087.56;10440841;28;20219;-68
2023/07/15 12:17:09;;;;;;;2.72;2.33;;;;;;;28.21;39.67;99078.31;10415301;28;20236;-69
2023/07/15 12:22:10;;;;;;;3.92;2.90;;;;;;;29.77;37.47;99037.94;10401380;28;20259;-71
2023/07/15 12:27:12;;;;;;;4.45;2.47;;;;;;;28.10;38.90;99097.00;10405746;28;20262;-71
2023/07/15 12:32:14;;;;;;;3.33;2.60;;;;;;;28.05;39.78;99078.72;10413822;28;20379;-71
2023/07/15 12:37:16;;;;;;;7.10;2.80;;;;;;;28.73;38.33;99081.13;10405512;28;20266;-68
2023/07/15 12:42:18;;;;;;;3.03;2.45;;;;;;;29.68;36.53;99040.75;10406965;28;20323;-66
2023/07/15 12:47:20;;;;;;;4.68;3.03;;;;;;;28.54;37.67;99091.59;10404266;28;20246;-67
2023/07/15 12:52:22;;;;;;;5.50;2.58;;;;;;;30.27;36.78;99065.91;10404938;28;20876;-68
2023/07/15 12:57:23;;;;;;;3.58;2.58;;;;;;;30.27;36.24;99046.59;10408980;28;20268;-67
2023/07/15 13:02:25;;;;;;;3.38;2.55;;;;;;;30.06;36.37;99048.19;10413891;28;20233;-67
2023/07/15 13:07:27;;;;;;;3.03;2.72;;;;;;;29.90;36.33;99033.34;10402479;28;20240;-67
2023/07/15 13:12:29;;;;;;;5.80;2.90;;;;;;;28.88;37.23;99041.28;10403404;28;20228;-67
2023/07/15 13:17:30;;;;;;;3.75;2.70;;;;;;;30.06;36.22;99025.31;10395238;28;20302;-67
2023/07/15 13:27:41;;;;;;;4.95;2.83;;;;;;;30.81;35.56;99036.41;10273932;28;20242;-37
2023/07/15 13:32:43;;;;;;;5.72;2.80;;;;;;;29.39;36.83;99066.28;10269949;28;20242;-37
2023/07/15 13:37:45;;;;;;;3.50;2.42;;;;;;;29.21;37.13;99032.47;10270321;28;20262;-37
2023/07/15 13:42:49;;;;;;;3.83;2.85;;;;;;;29.60;37.06;99049.84;10269892;28;20265;-36
2023/07/15 13:47:52;;;;;;;5.38;2.70;;;;;;;28.69;37.77;99085.63;10268876;28;20255;-37
2023/07/15 13:52:54;;;;;;;3.08;2.40;;;;;;;28.41;38.66;99088.69;10273875;28;20235;-37
2023/07/15 13:57:56;;;;;;;4.22;2.60;;;;;;;29.19;37.49;99075.28;10277351;28;20253;-36
2023/07/15 14:02:58;;;;;;;6.50;2.78;;;;;;;28.07;38.64;99099.56;10270837;28;20230;-37
2023/07/15 14:08:00;;;;;;;8.18;3.33;;;;;;;28.67;38.99;99074.16;10255278;28;20239;-37
2023/07/15 14:13:01;;;;;;;5.60;3.00;;;;;;;26.84;43.45;99054.13;10270961;28;20614;-37
2023/07/15 14:18:06;;;;;;;3.70;2.88;;;;;;;26.78;43.17;99086.38;10265913;28;20314;-36
2023/07/15 14:23:08;;;;;;;6.35;4.07;;;;;;;28.51;41.09;99076.56;10265795;28;20245;-36
2023/07/15 14:28:10;;;;;;;14.32;3.75;;;;;;;26.48;43.11;99151.75;10271108;28;20234;-37
2023/07/15 14:33:12;;;;;;;10.52;3.40;;;;;;;26.51;43.24;99126.47;10268443;28;20289;-37
2023/07/15 14:38:14;;;;;;;3.10;2.65;;;;;;;25.92;45.45;99122.72;10346933;28;20858;-37
2023/07/15 14:43:16;;;;;;;3.95;2.90;;;;;;;26.03;45.25;99135.94;10350999;28;20225;-36
2023/07/15 14:48:18;;;;;;;4.25;3.20;;;;;;;27.02;44.66;99097.06;10353798;28;20244;-37
2023/07/15 14:53:19;;;;;;;3.63;2.70;;;;;;;25.95;46.25;99124.88;10347672;28;20234;-37
2023/07/15 14:58:22;;;;;;;5.15;3.10;;;;;;;26.14;45.82;99095.41;10348727;28;20268;-36
2023/07/15 15:03:24;;;;;;;3.92;2.60;;;;;;;26.31;46.35;99118.69;10350440;28;20921;-37
2023/07/15 15:08:26;;;;;;;6.10;2.92;;;;;;;27.98;43.94;99094.84;10350568;28;20206;-37
2023/07/15 15:13:27;;;;;;;4.18;2.95;;;;;;;27.61;44.44;99094.19;10351869;28;20242;-36
2023/07/15 15:18:29;;;;;;;6.60;3.05;;;;;;;28.50;42.97;99112.66;10355259;28;20209;-37
2023/07/15 15:23:31;;;;;;;9.90;3.30;;;;;;;28.34;43.20;99109.53;10351892;28;20248;-37
2023/07/15 15:28:34;;;;;;;3.38;2.70;;;;;;;26.51;45.47;99164.88;10344316;28;20288;-37
2023/07/15 15:33:36;;;;;;;3.28;2.75;;;;;;;27.34;44.37;99139.13;10339436;28;20245;-36
2023/07/15 15:38:38;;;;;;;6.43;3.13;;;;;;;29.47;41.29;99115.06;10350083;28;20241;-37
2023/07/15 15:43:41;;;;;;;5.13;2.88;;;;;;;27.80;43.06;99142.66;10351612;28;20336;-36
2023/07/15 15:48:43;;;;;;;5.85;2.80;;;;;;;29.37;41.00;99134.69;10350050;28;20237;-37
2023/07/15 15:54:02;;;;;;;4.32;2.70;;;;;;;28.82;41.54;99116.91;10360052;28;20255;-36
2023/07/15 15:59:04;;;;;;;3.53;2.75;;;;;;;28.05;41.81;99136.47;10354953;28;20255;-36
2023/07/15 16:04:06;;;;;;;6.13;2.90;;;;;;;29.31;40.09;99112.00;10342167;28;20265;-36
2023/07/15 16:09:08;;;;;;;4.50;3.00;;;;;;;27.58;42.07;99132.50;10361202;28;20225;-37
2023/07/15 16:14:13;;;;;;;5.80;2.92;;;;;;;29.20;39.85;99107.16;10354649;28;21053;-37
2023/07/15 16:19:14;;;;;;;3.95;2.90;;;;;;;30.07;38.48;99091.16;10354673;28;20941;-36
2023/07/15 16:24:16;;;;;;;4.75;2.72;;;;;;;29.70;38.88;99092.78;10354625;28;20785;-37
2023/07/15 16:29:18;;;;;;;5.85;2.97;;;;;;;28.93;40.87;99090.66;10354483;28;20311;-36
2023/07/15 16:34:20;;;;;;;3.72;2.50;;;;;;;30.24;38.70;99059.91;10354264;28;20283;-37
2023/07/15 16:39:22;;;;;;;3.95;2.45;;;;;;;30.14;38.45;99118.22;10349281;28;20236;-37
2023/07/15 16:44:23;;;;;;;3.58;2.78;;;;;;;29.98;39.00;99081.31;10355890;28;20229;-37
2023/07/15 16:49:25;;;;;;;3.13;2.60;;;;;;;28.83;40.14;99106.69;10349393;28;20229;-37
2023/07/15 16:54:27;;;;;;;4.40;2.42;;;;;;;27.27;42.34;99139.56;10352831;28;20221;-37
2023/07/15 16:59:29;;;;;;;3.97;2.30;;;;;;;30.51;38.28;99071.59;10352481;28;20232;-37
2023/07/15 17:04:36;;;;;;;2.72;2.35;;;;;;;28.76;40.60;99107.19;10352951;28;20760;-37
2023/07/15 17:09:40;;;;;;;3.15;2.40;;;;;;;28.73;41.21;99078.38;10351510;28;20284;-37
2023/07/15 17:14:42;;;;;;;5.18;2.60;;;;;;;29.77;39.54;99078.50;10356107;28;20288;-37
2023/07/15 17:19:44;;;;;;;2.95;2.63;;;;;;;28.64;40.79;99095.97;10352249;28;20242;-37
2023/07/15 17:24:48;;;;;;;3.95;2.60;;;;;;;26.64;43.61;99126.75;10353519;28;20327;-36
2023/07/15 17:29:49;;;;;;;2.28;2.08;;;;;;;26.51;44.16;99109.19;10354362;28;20213;-37
2023/07/15 17:34:51;;;;;;;6.72;3.33;;;;;;;27.80;41.87;99102.25;10352747;28;20229;-36
2023/07/15 17:39:53;;;;;;;2.53;2.17;;;;;;;29.02;40.69;99076.88;10360880;28;20619;-36
2023/07/15 17:44:55;;;;;;;3.55;2.47;;;;;;;30.37;38.51;99104.94;10357124;28;20239;-37
2023/07/15 17:49:57;;;;;;;3.67;2.35;;;;;;;27.72;41.93;99132.41;10350648;28;20230;-37
2023/07/15 17:54:59;;;;;;;2.47;2.10;;;;;;;28.30;41.28;99114.88;10349850;28;20265;-37
2023/07/15 18:00:13;;;;;;;3.03;2.30;;;;;;;27.00;43.16;99147.91;10342502;28;20209;-37
2023/07/15 18:05:15;;;;;;;4.18;2.20;;;;;;;27.72;42.50;99126.94;10352514;28;20275;-37
2023/07/15 18:10:17;;;;;;;4.13;2.60;;;;;;;28.88;40.83;99092.75;10349044;28;20323;-36
2023/07/15 18:15:19;;;;;;;2.67;2.30;;;;;;;26.01;45.05;99138.16;10354044;28;20233;-36
2023/07/15 18:20:21;;;;;;;3.25;2.40;;;;;;;26.62;44.53;99090.56;10352007;28;20233;-37
2023/07/15 18:25:25;;;;;;;4.47;2.40;;;;;;;26.07;45.70;99110.66;10350680;28;20237;-36
2023/07/15 18:30:27;;;;;;;2.63;2.08;;;;;;;28.11;42.42;99101.38;10347070;28;20287;-36
2023/07/15 18:35:29;;;;;;;5.75;2.65;;;;;;;27.26;43.70;99121.50;10354254;28;20233;-37
2023/07/15 18:40:31;;;;;;;5.97;2.58;;;;;;;25.93;45.65;99159.97;10343303;28;20251;-36
2023/07/15 18:45:33;;;;;;;4.00;2.50;;;;;;;24.95;47.10;99190.81;10336272;28;20726;-37
2023/07/15 18:50:35;;;;;;;3.03;2.17;;;;;;;25.53;46.72;99154.09;10344048;28;20237;-37
2023/07/15 18:55:36;;;;;;;3.28;2.40;;;;;;;24.58;49.24;99173.25;10347236;28;20242;-37
2023/07/15 19:00:38;;;;;;;2.60;2.20;;;;;;;25.35;47.68;99191.34;10345526;28;20229;-37
2023/07/15 19:05:40;;;;;;;2.28;2.08;;;;;;;25.83;46.69;99204.84;10347255;28;20243;-37
2023/07/15 19:10:42;;;;;;;6.45;2.10;;;;;;;23.76;49.50;99207.72;10345162;28;21102;-37
2023/07/15 19:15:44;;;;;;;3.78;2.40;;;;;;;25.84;45.99;99284.00;10350206;28;20387;-37
2023/07/15 19:20:45;;;;;;;8.10;2.80;;;;;;;25.15;50.63;99353.94;10347854;28;20233;-36
2023/07/15 19:25:47;;;;;;;5.57;2.38;;;;;;;22.99;55.65;99299.06;10399894;23;20904;-33
2023/07/15 19:30:49;;;;;;;2.42;2.03;;;;;;;20.99;57.74;99248.16;10400015;28;20247;-34
2023/07/15 19:35:51;;;;;;;4.53;2.85;;;;;;;23.99;53.09;99206.97;10399170;28;20327;-36
2023/07/15 19:40:53;;;;;;;2.42;2.20;;;;;;;23.78;52.23;99287.47;10400828;28;20293;-36
2023/07/15 19:45:55;;;;;;;4.22;2.00;;;;;;;23.96;53.29;99261.38;10403727;28;20229;-34
2023/07/15 19:50:57;;;;;;;1.80;1.70;;;;;;;24.46;51.97;99329.53;10395018;28;20232;-35
2023/07/15 19:55:59;;;;;;;1.90;1.80;;;;;;;22.71;54.44;99385.09;10400137;28;20232;-34
2023/07/15 20:01:00;;;;;;;2.15;1.88;;;;;;;23.17;54.06;99327.66;10401189;28;20224;-34
2023/07/15 20:06:02;;;;;;;2.85;2.17;;;;;;;23.16;54.21;99333.41;10401213;28;20249;-34
2023/07/15 20:11:04;;;;;;;2.47;1.95;;;;;;;22.74;55.71;99345.53;10392461;28;20232;-35
2023/07/15 20:16:06;;;;;;;2.63;2.10;;;;;;;23.60;53.04;99377.16;10396949;28;20268;-35
2023/07/15 20:21:08;;;;;;;3.33;1.98;;;;;;;23.66;53.15;99437.22;10400650;28;20248;-34
2023/07/15 20:26:10;;;;;;;2.90;1.90;;;;;;;24.15;52.82;99332.56;10395516;28;20233;-35
2023/07/15 20:31:12;;;;;;;3.20;2.00;;;;;;;23.95;52.79;99413.53;10393686;28;20228;-35
2023/07/15 20:36:14;;;;;;;2.28;2.00;;;;;;;22.21;55.89;99414.78;10392975;28;20255;-34
2023/07/15 20:41:17;;;;;;;2.17;1.98;;;;;;;23.24;54.18;99346.47;10391391;28;20240;-34
2023/07/15 20:46:20;;;;;;;4.18;2.08;;;;;;;22.25;57.23;99322.41;10394337;28;20248;-34
2023/07/15 20:51:21;;;;;;;3.38;2.03;;;;;;;23.78;53.85;99347.56;10393544;28;20238;-34
2023/07/15 20:56:23;;;;;;;3.17;2.17;;;;;;;23.48;53.52;99382.09;10392271;28;20233;-34
2023/07/15 21:01:25;;;;;;;4.85;2.70;;;;;;;21.29;58.99;99381.81;10395991;28;20228;-34
2023/07/15 21:06:27;;;;;;;2.92;2.60;;;;;;;22.26;57.58;99315.88;10396644;28;20254;-34
2023/07/15 21:11:29;;;;;;;3.78;2.70;;;;;;;21.77;57.87;99374.38;10400495;28;20228;-36
2023/07/15 21:16:31;;;;;;;5.50;2.90;;;;;;;22.39;57.16;99378.00;10387766;28;20319;-36
2023/07/15 21:21:33;;;;;;;2.95;2.50;;;;;;;23.02;55.39;99401.38;10396219;28;20318;-36
2023/07/15 21:26:35;;;;;;;2.95;2.33;;;;;;;23.62;54.13;99417.84;10395428;28;20241;-36
2023/07/15 21:31:37;;;;;;;3.47;2.28;;;;;;;24.13;53.05;99403.06;10396773;28;20239;-35
2023/07/15 21:36:39;;;;;;;2.78;2.33;;;;;;;23.28;54.69;99499.56;10398265;28;20232;-36
2023/07/15 21:41:40;;;;;;;3.88;2.60;;;;;;;23.07;55.17;99497.69;10396110;28;20236;-35
2023/07/15 21:46:42;;;;;;;3.13;2.30;;;;;;;23.08;55.12;99501.25;10369808;28;21131;-35
2023/07/15 21:51:44;;;;;;;3.45;2.40;;;;;;;23.32;54.27;99506.94;10350043;28;20232;-36
2023/07/15 21:56:46;;;;;;;4.45;2.85;;;;;;;23.24;55.22;99500.13;10350732;28;20241;-36
2023/07/15 22:01:48;;;;;;;3.90;2.67;;;;;;;23.97;53.13;99501.53;10354583;28;20233;-37
2023/07/15 22:06:50;;;;;;;2.95;2.33;;;;;;;24.40;52.50;99520.16;10349270;28;20322;-34
2023/07/15 22:11:51;;;;;;;3.72;2.50;;;;;;;24.09;53.14;99493.00;10347825;28;20707;-34
2023/07/15 22:16:56;;;;;;;2.85;2.38;;;;;;;23.34;54.46;99545.69;10335468;28;20606;-34
2023/07/15 22:21:58;;;;;;;4.90;2.80;;;;;;;26.19;48.63;99472.84;10347812;28;20240;-35
2023/07/15 22:27:00;;;;;;;4.05;2.53;;;;;;;25.37;50.64;99499.38;10351780;28;20229;-35
2023/07/15 22:32:02;;;;;;;3.65;2.15;;;;;;;24.39;52.21;99553.25;10344241;28;20722;-35
2023/07/15 22:37:05;;;;;;;4.25;2.53;;;;;;;20.59;60.57;99689.09;10350478;28;20225;-35
2023/07/15 22:42:07;;;;;;;3.63;2.55;;;;;;;20.99;60.94;99585.41;10343044;28;20237;-34
2023/07/15 22:47:08;;;;;;;3.00;1.92;;;;;;;23.45;54.82;99536.38;10343710;28;20232;-34
2023/07/15 22:52:11;;;;;;;3.13;2.00;;;;;;;21.63;57.58;99588.31;10351227;28;20229;-35
2023/07/15 22:57:13;;;;;;;2.25;2.00;;;;;;;22.23;56.88;99586.19;10344952;28;20238;-34
2023/07/15 23:02:15;;;;;;;1.73;1.63;;;;;;;22.58;54.70;99582.78;10345745;28;20229;-35
2023/07/15 23:07:18;;;;;;;1.73;1.63;;;;;;;22.44;55.09;99598.81;10347227;28;20230;-35
2023/07/15 23:12:20;;;;;;;1.60;1.50;;;;;;;22.83;53.81;99633.00;10343696;28;20225;-35
2023/07/15 23:17:22;;;;;;;4.30;1.80;;;;;;;23.07;53.76;99630.59;10339970;28;20234;-35
2023/07/15 23:22:24;;;;;;;1.58;1.48;;;;;;;22.12;55.10;99659.72;10347597;28;20742;-35
2023/07/15 23:27:26;;;;;;;1.98;1.60;;;;;;;22.27;53.50;99658.16;10338441;28;20232;-35
2023/07/15 23:32:28;;;;;;;2.13;1.80;;;;;;;23.16;51.79;99633.59;10341970;28;20271;-35
2023/07/15 23:37:30;;;;;;;2.15;1.70;;;;;;;22.58;52.49;99658.31;10341108;28;20230;-35